Terminal Aerodrome Forecast
Issued by NWS Corpus Christi, TX

Home | Current Version | Previous Version | Text Only | Print | Product List | Glossary On
Versions: 1 2 3 4 5 6 7 8 9 10 11 12 13 14 15
000
FTUS44 KCRP 211400 AAA
TAFCRP
TAF AMD
KCRP 211424Z 2114/2212 17016G22KT P6SM BKN025
     FM211530 17018G25KT P6SM SCT035
     FM211900 14022G30KT P6SM FEW040
     FM220400 15010KT P6SM FEW018=

USA.gov is the U.S. government's official web portal to all federal, state and local government web resources and services.